sensor_id;sensor_type;location;lat;lon;timestamp;P1;durP1;ratioP1;P2;durP2;ratioP2
45620;SDS011;31345;51.522;10.702;2022-10-31T00:02:12;12.52;;;4.85;;
45620;SDS011;31345;51.522;10.702;2022-10-31T00:04:40;10.85;;;5.32;;
45620;SDS011;31345;51.522;10.702;2022-10-31T00:07:07;13.45;;;6.05;;
45620;SDS011;31345;51.522;10.702;2022-10-31T00:09:35;10.07;;;5.90;;
45620;SDS011;31345;51.522;10.702;2022-10-31T00:12:03;9.13;;;5.28;;
45620;SDS011;31345;51.522;10.702;2022-10-31T00:14:32;9.77;;;4.55;;
45620;SDS011;31345;51.522;10.702;2022-10-31T00:17:00;9.23;;;4.47;;
45620;SDS011;31345;51.522;10.702;2022-10-31T00:19:27;6.45;;;3.53;;
45620;SDS011;31345;51.522;10.702;2022-10-31T00:21:55;5.65;;;3.60;;
45620;SDS011;31345;51.522;10.702;2022-10-31T00:24:23;6.25;;;2.83;;
45620;SDS011;31345;51.522;10.702;2022-10-31T00:26:50;6.78;;;3.60;;
45620;SDS011;31345;51.522;10.702;2022-10-31T00:29:21;7.35;;;3.95;;
45620;SDS011;31345;51.522;10.702;2022-10-31T00:31:51;12.60;;;5.00;;
45620;SDS011;31345;51.522;10.702;2022-10-31T00:34:19;12.50;;;5.45;;
45620;SDS011;31345;51.522;10.702;2022-10-31T00:36:47;9.73;;;5.03;;
45620;SDS011;31345;51.522;10.702;2022-10-31T00:39:14;13.02;;;6.25;;
45620;SDS011;31345;51.522;10.702;2022-10-31T00:41:42;8.68;;;6.03;;
45620;SDS011;31345;51.522;10.702;2022-10-31T00:44:12;10.52;;;4.80;;
45620;SDS011;31345;51.522;10.702;2022-10-31T00:46:39;16.10;;;5.30;;
45620;SDS011;31345;51.522;10.702;2022-10-31T00:49:08;10.85;;;5.30;;
45620;SDS011;31345;51.522;10.702;2022-10-31T00:51:36;9.75;;;4.80;;
45620;SDS011;31345;51.522;10.702;2022-10-31T00:54:04;14.35;;;4.82;;
45620;SDS011;31345;51.522;10.702;2022-10-31T00:56:32;11.20;;;6.00;;
45620;SDS011;31345;51.522;10.702;2022-10-31T00:58:59;9.98;;;5.45;;
45620;SDS011;31345;51.522;10.702;2022-10-31T01:01:27;8.45;;;4.80;;
45620;SDS011;31345;51.522;10.702;2022-10-31T01:03:55;8.45;;;4.82;;
45620;SDS011;31345;51.522;10.702;2022-10-31T01:06:24;11.25;;;5.80;;
45620;SDS011;31345;51.522;10.702;2022-10-31T01:08:52;11.52;;;4.60;;
45620;SDS011;31345;51.522;10.702;2022-10-31T01:11:20;8.43;;;3.85;;
45620;SDS011;31345;51.522;10.702;2022-10-31T01:13:49;9.57;;;4.13;;
45620;SDS011;31345;51.522;10.702;2022-10-31T01:16:19;11.70;;;4.85;;
45620;SDS011;31345;51.522;10.702;2022-10-31T01:18:50;12.50;;;4.50;;
45620;SDS011;31345;51.522;10.702;2022-10-31T01:21:19;17.00;;;4.57;;
45620;SDS011;31345;51.522;10.702;2022-10-31T01:23:50;10.88;;;4.30;;
45620;SDS011;31345;51.522;10.702;2022-10-31T01:26:21;8.73;;;4.95;;
45620;SDS011;31345;51.522;10.702;2022-10-31T01:28:51;10.75;;;4.78;;
45620;SDS011;31345;51.522;10.702;2022-10-31T01:31:21;7.65;;;4.75;;
45620;SDS011;31345;51.522;10.702;2022-10-31T01:33:51;13.93;;;5.15;;
45620;SDS011;31345;51.522;10.702;2022-10-31T01:36:19;11.25;;;5.07;;
45620;SDS011;31345;51.522;10.702;2022-10-31T01:41:21;14.48;;;5.25;;
45620;SDS011;31345;51.522;10.702;2022-10-31T01:43:52;11.90;;;5.82;;
45620;SDS011;31345;51.522;10.702;2022-10-31T01:46:22;7.82;;;5.43;;
45620;SDS011;31345;51.522;10.702;2022-10-31T01:51:23;8.60;;;5.05;;
45620;SDS011;31345;51.522;10.702;2022-10-31T01:53:58;14.57;;;5.28;;
45620;SDS011;31345;51.522;10.702;2022-10-31T01:56:28;10.18;;;5.35;;
45620;SDS011;31345;51.522;10.702;2022-10-31T01:58:57;11.85;;;5.90;;
45620;SDS011;31345;51.522;10.702;2022-10-31T02:01:28;10.20;;;5.50;;
45620;SDS011;31345;51.522;10.702;2022-10-31T02:03:56;15.65;;;6.30;;
45620;SDS011;31345;51.522;10.702;2022-10-31T02:06:26;8.52;;;5.50;;
45620;SDS011;31345;51.522;10.702;2022-10-31T02:09:02;12.93;;;6.10;;
45620;SDS011;31345;51.522;10.702;2022-10-31T02:11:31;12.70;;;6.30;;
45620;SDS011;31345;51.522;10.702;2022-10-31T02:14:02;11.75;;;5.90;;
45620;SDS011;31345;51.522;10.702;2022-10-31T02:16:30;11.00;;;6.35;;
45620;SDS011;31345;51.522;10.702;2022-10-31T02:18:57;11.30;;;5.47;;
45620;SDS011;31345;51.522;10.702;2022-10-31T02:21:27;12.20;;;6.00;;
45620;SDS011;31345;51.522;10.702;2022-10-31T02:27:19;8.18;;;6.28;;
45620;SDS011;31345;51.522;10.702;2022-10-31T02:30:06;12.23;;;6.50;;
45620;SDS011;31345;51.522;10.702;2022-10-31T02:32:41;11.25;;;6.05;;
45620;SDS011;31345;51.522;10.702;2022-10-31T02:35:14;9.32;;;5.85;;
45620;SDS011;31345;51.522;10.702;2022-10-31T02:37:53;13.02;;;6.10;;
45620;SDS011;31345;51.522;10.702;2022-10-31T02:40:29;14.35;;;6.47;;
45620;SDS011;31345;51.522;10.702;2022-10-31T02:43:40;20.63;;;6.28;;
45620;SDS011;31345;51.522;10.702;2022-10-31T02:46:23;8.43;;;4.78;;
45620;SDS011;31345;51.522;10.702;2022-10-31T02:48:57;11.20;;;5.43;;
45620;SDS011;31345;51.522;10.702;2022-10-31T02:51:32;9.43;;;5.63;;
45620;SDS011;31345;51.522;10.702;2022-10-31T02:54:00;9.23;;;5.63;;
45620;SDS011;31345;51.522;10.702;2022-10-31T02:56:28;10.25;;;5.93;;
45620;SDS011;31345;51.522;10.702;2022-10-31T02:58:56;13.40;;;5.68;;
45620;SDS011;31345;51.522;10.702;2022-10-31T03:01:46;13.65;;;5.60;;
45620;SDS011;31345;51.522;10.702;2022-10-31T03:07:28;14.77;;;5.55;;
45620;SDS011;31345;51.522;10.702;2022-10-31T03:10:08;10.32;;;5.47;;
45620;SDS011;31345;51.522;10.702;2022-10-31T03:12:46;6.55;;;4.72;;
45620;SDS011;31345;51.522;10.702;2022-10-31T03:15:22;9.90;;;5.80;;
45620;SDS011;31345;51.522;10.702;2022-10-31T03:17:55;9.43;;;5.68;;
45620;SDS011;31345;51.522;10.702;2022-10-31T03:20:44;12.43;;;5.95;;
45620;SDS011;31345;51.522;10.702;2022-10-31T03:23:15;9.50;;;5.25;;
45620;SDS011;31345;51.522;10.702;2022-10-31T03:25:49;10.23;;;5.70;;
45620;SDS011;31345;51.522;10.702;2022-10-31T03:28:19;12.52;;;5.75;;
45620;SDS011;31345;51.522;10.702;2022-10-31T03:30:53;10.18;;;5.80;;
45620;SDS011;31345;51.522;10.702;2022-10-31T03:33:23;12.45;;;6.20;;
45620;SDS011;31345;51.522;10.702;2022-10-31T03:35:58;12.13;;;6.53;;
45620;SDS011;31345;51.522;10.702;2022-10-31T03:38:30;16.23;;;6.68;;
45620;SDS011;31345;51.522;10.702;2022-10-31T03:41:01;12.25;;;6.47;;
45620;SDS011;31345;51.522;10.702;2022-10-31T03:43:33;21.40;;;5.60;;
45620;SDS011;31345;51.522;10.702;2022-10-31T03:46:07;9.30;;;5.47;;
45620;SDS011;31345;51.522;10.702;2022-10-31T03:48:35;11.68;;;5.15;;
45620;SDS011;31345;51.522;10.702;2022-10-31T03:51:06;11.05;;;4.93;;
45620;SDS011;31345;51.522;10.702;2022-10-31T03:53:38;12.35;;;4.53;;
45620;SDS011;31345;51.522;10.702;2022-10-31T03:56:15;5.45;;;3.20;;
45620;SDS011;31345;51.522;10.702;2022-10-31T03:58:47;8.65;;;4.10;;
45620;SDS011;31345;51.522;10.702;2022-10-31T04:01:20;12.32;;;5.82;;
45620;SDS011;31345;51.522;10.702;2022-10-31T04:03:51;9.30;;;4.78;;
45620;SDS011;31345;51.522;10.702;2022-10-31T04:06:22;7.55;;;4.40;;
45620;SDS011;31345;51.522;10.702;2022-10-31T04:08:52;19.35;;;4.20;;
45620;SDS011;31345;51.522;10.702;2022-10-31T04:11:25;7.38;;;3.72;;
45620;SDS011;31345;51.522;10.702;2022-10-31T04:14:17;7.22;;;4.63;;
45620;SDS011;31345;51.522;10.702;2022-10-31T04:16:45;9.38;;;5.43;;
45620;SDS011;31345;51.522;10.702;2022-10-31T04:19:13;14.20;;;5.38;;
45620;SDS011;31345;51.522;10.702;2022-10-31T04:21:43;9.98;;;6.05;;
45620;SDS011;31345;51.522;10.702;2022-10-31T04:24:11;14.38;;;6.47;;
45620;SDS011;31345;51.522;10.702;2022-10-31T04:26:40;10.95;;;5.45;;
45620;SDS011;31345;51.522;10.702;2022-10-31T04:29:07;11.25;;;5.72;;
45620;SDS011;31345;51.522;10.702;2022-10-31T04:31:35;9.60;;;5.50;;
45620;SDS011;31345;51.522;10.702;2022-10-31T04:34:03;11.93;;;6.40;;
45620;SDS011;31345;51.522;10.702;2022-10-31T04:36:30;11.38;;;5.93;;
45620;SDS011;31345;51.522;10.702;2022-10-31T04:38:59;8.93;;;5.38;;
45620;SDS011;31345;51.522;10.702;2022-10-31T04:41:38;11.35;;;5.78;;
45620;SDS011;31345;51.522;10.702;2022-10-31T04:44:13;9.80;;;5.93;;
45620;SDS011;31345;51.522;10.702;2022-10-31T04:46:42;10.25;;;5.75;;
45620;SDS011;31345;51.522;10.702;2022-10-31T04:49:10;11.23;;;4.63;;
45620;SDS011;31345;51.522;10.702;2022-10-31T04:51:38;11.48;;;5.13;;
45620;SDS011;31345;51.522;10.702;2022-10-31T04:54:09;13.60;;;5.18;;
45620;SDS011;31345;51.522;10.702;2022-10-31T04:56:59;10.57;;;4.93;;
45620;SDS011;31345;51.522;10.702;2022-10-31T04:59:28;11.77;;;5.72;;
45620;SDS011;31345;51.522;10.702;2022-10-31T05:01:56;14.10;;;5.80;;
45620;SDS011;31345;51.522;10.702;2022-10-31T05:04:36;10.45;;;5.65;;
45620;SDS011;31345;51.522;10.702;2022-10-31T05:07:04;12.35;;;6.30;;
45620;SDS011;31345;51.522;10.702;2022-10-31T05:09:33;11.45;;;5.75;;
45620;SDS011;31345;51.522;10.702;2022-10-31T05:12:01;16.23;;;5.00;;
45620;SDS011;31345;51.522;10.702;2022-10-31T05:14:55;9.43;;;4.57;;
45620;SDS011;31345;51.522;10.702;2022-10-31T05:17:41;10.27;;;4.45;;
45620;SDS011;31345;51.522;10.702;2022-10-31T05:20:34;9.68;;;5.10;;
45620;SDS011;31345;51.522;10.702;2022-10-31T05:23:21;9.88;;;5.18;;
45620;SDS011;31345;51.522;10.702;2022-10-31T05:25:51;11.63;;;5.25;;
45620;SDS011;31345;51.522;10.702;2022-10-31T05:28:19;10.98;;;5.55;;
45620;SDS011;31345;51.522;10.702;2022-10-31T05:30:46;10.32;;;4.85;;
45620;SDS011;31345;51.522;10.702;2022-10-31T05:33:15;7.05;;;4.40;;
45620;SDS011;31345;51.522;10.702;2022-10-31T05:36:22;15.95;;;5.00;;
45620;SDS011;31345;51.522;10.702;2022-10-31T05:39:12;8.82;;;4.15;;
45620;SDS011;31345;51.522;10.702;2022-10-31T05:41:44;7.03;;;4.63;;
45620;SDS011;31345;51.522;10.702;2022-10-31T05:44:27;11.18;;;5.50;;
45620;SDS011;31345;51.522;10.702;2022-10-31T05:47:21;11.07;;;6.07;;
45620;SDS011;31345;51.522;10.702;2022-10-31T05:49:54;7.60;;;5.40;;
45620;SDS011;31345;51.522;10.702;2022-10-31T05:52:42;16.92;;;6.30;;
45620;SDS011;31345;51.522;10.702;2022-10-31T05:55:21;12.43;;;6.45;;
45620;SDS011;31345;51.522;10.702;2022-10-31T05:58:13;13.10;;;5.72;;
45620;SDS011;31345;51.522;10.702;2022-10-31T06:00:48;9.60;;;5.70;;
45620;SDS011;31345;51.522;10.702;2022-10-31T06:03:16;10.27;;;5.93;;
45620;SDS011;31345;51.522;10.702;2022-10-31T06:05:50;10.82;;;6.47;;
45620;SDS011;31345;51.522;10.702;2022-10-31T06:08:17;7.97;;;5.57;;
45620;SDS011;31345;51.522;10.702;2022-10-31T06:10:45;12.68;;;6.15;;
45620;SDS011;31345;51.522;10.702;2022-10-31T06:13:18;10.63;;;6.22;;
45620;SDS011;31345;51.522;10.702;2022-10-31T06:16:01;8.13;;;4.32;;
45620;SDS011;31345;51.522;10.702;2022-10-31T06:18:35;7.80;;;5.03;;
45620;SDS011;31345;51.522;10.702;2022-10-31T06:21:03;7.55;;;4.57;;
45620;SDS011;31345;51.522;10.702;2022-10-31T06:23:31;8.30;;;4.95;;
45620;SDS011;31345;51.522;10.702;2022-10-31T06:26:18;8.05;;;4.38;;
45620;SDS011;31345;51.522;10.702;2022-10-31T06:28:49;11.88;;;5.18;;
45620;SDS011;31345;51.522;10.702;2022-10-31T06:31:29;9.50;;;4.50;;
45620;SDS011;31345;51.522;10.702;2022-10-31T06:33:57;10.75;;;5.03;;
45620;SDS011;31345;51.522;10.702;2022-10-31T06:36:25;12.07;;;5.35;;
45620;SDS011;31345;51.522;10.702;2022-10-31T06:38:53;12.85;;;4.90;;
45620;SDS011;31345;51.522;10.702;2022-10-31T06:41:23;9.30;;;5.07;;
45620;SDS011;31345;51.522;10.702;2022-10-31T06:43:54;8.20;;;5.32;;
45620;SDS011;31345;51.522;10.702;2022-10-31T06:46:50;8.75;;;4.45;;
45620;SDS011;31345;51.522;10.702;2022-10-31T06:49:37;7.70;;;5.10;;
45620;SDS011;31345;51.522;10.702;2022-10-31T06:52:10;8.07;;;4.60;;
45620;SDS011;31345;51.522;10.702;2022-10-31T06:54:38;7.80;;;4.78;;
45620;SDS011;31345;51.522;10.702;2022-10-31T06:57:06;9.13;;;5.20;;
45620;SDS011;31345;51.522;10.702;2022-10-31T06:59:35;9.27;;;5.22;;
45620;SDS011;31345;51.522;10.702;2022-10-31T07:02:09;8.35;;;4.90;;
45620;SDS011;31345;51.522;10.702;2022-10-31T07:04:38;11.02;;;5.05;;
45620;SDS011;31345;51.522;10.702;2022-10-31T07:07:07;8.75;;;5.10;;
45620;SDS011;31345;51.522;10.702;2022-10-31T07:09:37;11.30;;;5.33;;
45620;SDS011;31345;51.522;10.702;2022-10-31T07:12:05;8.63;;;4.82;;
45620;SDS011;31345;51.522;10.702;2022-10-31T07:14:39;9.80;;;5.20;;
45620;SDS011;31345;51.522;10.702;2022-10-31T07:17:07;12.50;;;5.55;;
45620;SDS011;31345;51.522;10.702;2022-10-31T07:19:39;9.50;;;5.03;;
45620;SDS011;31345;51.522;10.702;2022-10-31T07:22:06;11.25;;;5.10;;
45620;SDS011;31345;51.522;10.702;2022-10-31T07:24:35;7.07;;;4.93;;
45620;SDS011;31345;51.522;10.702;2022-10-31T07:27:15;9.27;;;5.70;;
45620;SDS011;31345;51.522;10.702;2022-10-31T07:29:46;7.82;;;5.13;;
45620;SDS011;31345;51.522;10.702;2022-10-31T07:32:16;11.00;;;5.22;;
45620;SDS011;31345;51.522;10.702;2022-10-31T07:34:52;10.00;;;5.85;;
45620;SDS011;31345;51.522;10.702;2022-10-31T07:37:23;9.80;;;4.97;;
45620;SDS011;31345;51.522;10.702;2022-10-31T07:39:56;13.07;;;5.63;;
45620;SDS011;31345;51.522;10.702;2022-10-31T07:42:25;8.88;;;5.32;;
45620;SDS011;31345;51.522;10.702;2022-10-31T07:44:54;9.30;;;5.32;;
45620;SDS011;31345;51.522;10.702;2022-10-31T07:47:48;10.05;;;5.13;;
45620;SDS011;31345;51.522;10.702;2022-10-31T07:50:35;9.77;;;5.20;;
45620;SDS011;31345;51.522;10.702;2022-10-31T07:53:21;13.35;;;5.93;;
45620;SDS011;31345;51.522;10.702;2022-10-31T07:55:54;11.13;;;6.45;;
45620;SDS011;31345;51.522;10.702;2022-10-31T07:58:25;16.35;;;6.00;;
45620;SDS011;31345;51.522;10.702;2022-10-31T08:00:54;11.65;;;7.28;;
45620;SDS011;31345;51.522;10.702;2022-10-31T08:03:32;12.65;;;7.40;;
45620;SDS011;31345;51.522;10.702;2022-10-31T08:06:35;11.57;;;6.10;;
45620;SDS011;31345;51.522;10.702;2022-10-31T08:09:24;10.93;;;6.28;;
45620;SDS011;31345;51.522;10.702;2022-10-31T08:11:53;14.55;;;7.05;;
45620;SDS011;31345;51.522;10.702;2022-10-31T08:14:21;12.10;;;6.43;;
45620;SDS011;31345;51.522;10.702;2022-10-31T08:16:53;16.10;;;7.30;;
45620;SDS011;31345;51.522;10.702;2022-10-31T08:19:28;13.02;;;7.05;;
45620;SDS011;31345;51.522;10.702;2022-10-31T08:21:56;11.10;;;6.90;;
45620;SDS011;31345;51.522;10.702;2022-10-31T08:24:27;12.35;;;6.55;;
45620;SDS011;31345;51.522;10.702;2022-10-31T08:26:57;12.27;;;7.93;;
45620;SDS011;31345;51.522;10.702;2022-10-31T08:29:25;14.80;;;7.38;;
45620;SDS011;31345;51.522;10.702;2022-10-31T08:31:55;92.60;;;78.38;;
45620;SDS011;31345;51.522;10.702;2022-10-31T08:34:43;18.30;;;13.05;;
45620;SDS011;31345;51.522;10.702;2022-10-31T08:37:37;13.35;;;9.05;;
45620;SDS011;31345;51.522;10.702;2022-10-31T08:40:06;14.13;;;7.60;;
45620;SDS011;31345;51.522;10.702;2022-10-31T08:42:36;12.13;;;8.15;;
45620;SDS011;31345;51.522;10.702;2022-10-31T08:45:07;12.77;;;7.10;;
45620;SDS011;31345;51.522;10.702;2022-10-31T08:47:37;14.93;;;6.85;;
45620;SDS011;31345;51.522;10.702;2022-10-31T08:50:05;11.93;;;7.18;;
45620;SDS011;31345;51.522;10.702;2022-10-31T08:52:34;11.65;;;6.28;;
45620;SDS011;31345;51.522;10.702;2022-10-31T08:55:04;12.15;;;6.68;;
45620;SDS011;31345;51.522;10.702;2022-10-31T08:58:01;14.75;;;10.27;;
45620;SDS011;31345;51.522;10.702;2022-10-31T09:00:38;17.85;;;9.10;;
45620;SDS011;31345;51.522;10.702;2022-10-31T09:03:15;14.45;;;9.85;;
45620;SDS011;31345;51.522;10.702;2022-10-31T09:05:44;15.38;;;8.93;;
45620;SDS011;31345;51.522;10.702;2022-10-31T09:08:12;14.77;;;7.43;;
45620;SDS011;31345;51.522;10.702;2022-10-31T09:10:41;18.88;;;9.90;;
45620;SDS011;31345;51.522;10.702;2022-10-31T09:13:10;11.93;;;7.75;;
45620;SDS011;31345;51.522;10.702;2022-10-31T09:16:05;11.10;;;7.25;;
45620;SDS011;31345;51.522;10.702;2022-10-31T09:18:36;12.30;;;7.65;;
45620;SDS011;31345;51.522;10.702;2022-10-31T09:21:04;10.55;;;7.25;;
45620;SDS011;31345;51.522;10.702;2022-10-31T09:23:31;14.15;;;7.03;;
45620;SDS011;31345;51.522;10.702;2022-10-31T09:26:00;14.75;;;7.90;;
45620;SDS011;31345;51.522;10.702;2022-10-31T09:28:41;14.25;;;8.35;;
45620;SDS011;31345;51.522;10.702;2022-10-31T09:31:13;15.35;;;9.50;;
45620;SDS011;31345;51.522;10.702;2022-10-31T09:33:57;15.30;;;7.97;;
45620;SDS011;31345;51.522;10.702;2022-10-31T09:36:50;10.75;;;7.20;;
45620;SDS011;31345;51.522;10.702;2022-10-31T09:39:23;14.20;;;7.72;;
45620;SDS011;31345;51.522;10.702;2022-10-31T09:42:10;13.18;;;7.40;;
45620;SDS011;31345;51.522;10.702;2022-10-31T09:45:05;11.20;;;7.00;;
45620;SDS011;31345;51.522;10.702;2022-10-31T09:47:43;18.63;;;8.50;;
45620;SDS011;31345;51.522;10.702;2022-10-31T09:50:48;14.50;;;7.25;;
45620;SDS011;31345;51.522;10.702;2022-10-31T09:53:48;16.55;;;8.48;;
45620;SDS011;31345;51.522;10.702;2022-10-31T09:56:28;11.18;;;7.45;;
45620;SDS011;31345;51.522;10.702;2022-10-31T10:01:30;11.80;;;6.85;;
45620;SDS011;31345;51.522;10.702;2022-10-31T10:04:09;18.13;;;8.00;;
45620;SDS011;31345;51.522;10.702;2022-10-31T10:07:16;13.73;;;8.13;;
45620;SDS011;31345;51.522;10.702;2022-10-31T10:10:13;13.00;;;8.40;;
45620;SDS011;31345;51.522;10.702;2022-10-31T10:16:16;18.88;;;12.93;;
45620;SDS011;31345;51.522;10.702;2022-10-31T10:19:02;19.73;;;9.85;;
45620;SDS011;31345;51.522;10.702;2022-10-31T10:21:47;17.20;;;9.23;;
45620;SDS011;31345;51.522;10.702;2022-10-31T10:24:26;14.52;;;8.57;;
45620;SDS011;31345;51.522;10.702;2022-10-31T10:27:03;16.48;;;9.02;;
45620;SDS011;31345;51.522;10.702;2022-10-31T10:29:40;16.05;;;9.45;;
45620;SDS011;31345;51.522;10.702;2022-10-31T10:32:17;17.35;;;9.55;;
45620;SDS011;31345;51.522;10.702;2022-10-31T10:34:51;16.92;;;8.88;;
45620;SDS011;31345;51.522;10.702;2022-10-31T10:37:23;19.42;;;9.55;;
45620;SDS011;31345;51.522;10.702;2022-10-31T10:40:00;14.75;;;8.63;;
45620;SDS011;31345;51.522;10.702;2022-10-31T10:42:45;16.95;;;9.57;;
45620;SDS011;31345;51.522;10.702;2022-10-31T10:49:21;17.70;;;9.65;;
45620;SDS011;31345;51.522;10.702;2022-10-31T10:55:05;19.98;;;9.98;;
45620;SDS011;31345;51.522;10.702;2022-10-31T10:57:53;18.50;;;10.60;;
45620;SDS011;31345;51.522;10.702;2022-10-31T11:00:25;19.77;;;11.70;;
45620;SDS011;31345;51.522;10.702;2022-10-31T11:02:54;22.27;;;12.20;;
45620;SDS011;31345;51.522;10.702;2022-10-31T11:05:24;21.33;;;12.80;;
45620;SDS011;31345;51.522;10.702;2022-10-31T11:07:55;21.65;;;11.45;;
45620;SDS011;31345;51.522;10.702;2022-10-31T11:10:24;20.13;;;12.45;;
45620;SDS011;31345;51.522;10.702;2022-10-31T11:13:17;20.80;;;12.50;;
45620;SDS011;31345;51.522;10.702;2022-10-31T11:15:51;22.27;;;13.13;;
45620;SDS011;31345;51.522;10.702;2022-10-31T11:18:24;25.00;;;13.93;;
45620;SDS011;31345;51.522;10.702;2022-10-31T11:20:56;24.05;;;14.57;;
45620;SDS011;31345;51.522;10.702;2022-10-31T11:23:31;27.40;;;15.18;;
45620;SDS011;31345;51.522;10.702;2022-10-31T11:26:03;27.90;;;14.38;;
45620;SDS011;31345;51.522;10.702;2022-10-31T11:28:33;24.42;;;14.23;;
45620;SDS011;31345;51.522;10.702;2022-10-31T11:31:05;26.50;;;14.20;;
45620;SDS011;31345;51.522;10.702;2022-10-31T11:33:46;22.88;;;14.88;;
45620;SDS011;31345;51.522;10.702;2022-10-31T11:36:18;26.92;;;15.82;;
45620;SDS011;31345;51.522;10.702;2022-10-31T11:38:50;36.35;;;16.45;;
45620;SDS011;31345;51.522;10.702;2022-10-31T11:41:24;28.75;;;16.33;;
45620;SDS011;31345;51.522;10.702;2022-10-31T11:43:55;30.30;;;16.10;;
45620;SDS011;31345;51.522;10.702;2022-10-31T11:46:27;27.75;;;16.35;;
45620;SDS011;31345;51.522;10.702;2022-10-31T11:49:01;25.13;;;15.45;;
45620;SDS011;31345;51.522;10.702;2022-10-31T11:51:31;27.05;;;16.23;;
45620;SDS011;31345;51.522;10.702;2022-10-31T11:54:03;28.10;;;15.75;;
45620;SDS011;31345;51.522;10.702;2022-10-31T11:56:40;33.53;;;16.77;;
45620;SDS011;31345;51.522;10.702;2022-10-31T11:59:17;25.83;;;14.90;;
45620;SDS011;31345;51.522;10.702;2022-10-31T12:01:50;23.30;;;13.85;;
45620;SDS011;31345;51.522;10.702;2022-10-31T12:04:23;25.00;;;14.55;;
45620;SDS011;31345;51.522;10.702;2022-10-31T12:07:00;28.00;;;14.63;;
45620;SDS011;31345;51.522;10.702;2022-10-31T12:09:29;24.85;;;13.15;;
45620;SDS011;31345;51.522;10.702;2022-10-31T12:12:08;22.83;;;13.52;;
45620;SDS011;31345;51.522;10.702;2022-10-31T12:14:49;21.15;;;12.73;;
45620;SDS011;31345;51.522;10.702;2022-10-31T12:17:29;22.08;;;13.50;;
45620;SDS011;31345;51.522;10.702;2022-10-31T12:20:07;24.55;;;13.32;;
45620;SDS011;31345;51.522;10.702;2022-10-31T12:22:51;27.30;;;14.38;;
45620;SDS011;31345;51.522;10.702;2022-10-31T12:25:33;24.43;;;13.27;;
45620;SDS011;31345;51.522;10.702;2022-10-31T12:31:19;31.35;;;14.07;;
45620;SDS011;31345;51.522;10.702;2022-10-31T12:34:09;25.67;;;12.90;;
45620;SDS011;31345;51.522;10.702;2022-10-31T12:36:55;24.27;;;13.70;;
45620;SDS011;31345;51.522;10.702;2022-10-31T12:39:35;23.80;;;12.98;;
45620;SDS011;31345;51.522;10.702;2022-10-31T12:42:12;21.55;;;12.93;;
45620;SDS011;31345;51.522;10.702;2022-10-31T12:47:53;25.27;;;13.65;;
45620;SDS011;31345;51.522;10.702;2022-10-31T12:50:34;26.67;;;13.65;;
45620;SDS011;31345;51.522;10.702;2022-10-31T12:53:31;28.27;;;13.98;;
45620;SDS011;31345;51.522;10.702;2022-10-31T12:56:12;20.50;;;13.05;;
45620;SDS011;31345;51.522;10.702;2022-10-31T12:58:52;27.55;;;12.75;;
45620;SDS011;31345;51.522;10.702;2022-10-31T13:01:29;21.83;;;13.95;;
45620;SDS011;31345;51.522;10.702;2022-10-31T13:04:02;24.08;;;13.77;;
45620;SDS011;31345;51.522;10.702;2022-10-31T13:06:33;25.23;;;14.00;;
45620;SDS011;31345;51.522;10.702;2022-10-31T13:09:06;25.52;;;12.73;;
45620;SDS011;31345;51.522;10.702;2022-10-31T13:11:37;22.65;;;13.07;;
45620;SDS011;31345;51.522;10.702;2022-10-31T13:14:10;23.48;;;13.48;;
45620;SDS011;31345;51.522;10.702;2022-10-31T13:16:57;29.63;;;13.70;;
45620;SDS011;31345;51.522;10.702;2022-10-31T13:19:28;25.85;;;14.68;;
45620;SDS011;31345;51.522;10.702;2022-10-31T13:22:02;22.33;;;13.50;;
45620;SDS011;31345;51.522;10.702;2022-10-31T13:24:35;22.20;;;13.98;;
45620;SDS011;31345;51.522;10.702;2022-10-31T13:27:10;23.90;;;13.38;;
45620;SDS011;31345;51.522;10.702;2022-10-31T13:29:42;22.23;;;14.70;;
45620;SDS011;31345;51.522;10.702;2022-10-31T13:32:37;25.13;;;14.77;;
45620;SDS011;31345;51.522;10.702;2022-10-31T13:35:56;24.05;;;15.10;;
45620;SDS011;31345;51.522;10.702;2022-10-31T13:39:26;27.55;;;16.48;;
45620;SDS011;31345;51.522;10.702;2022-10-31T13:42:17;25.23;;;15.55;;
45620;SDS011;31345;51.522;10.702;2022-10-31T13:44:49;31.00;;;16.05;;
45620;SDS011;31345;51.522;10.702;2022-10-31T13:47:20;25.58;;;16.55;;
45620;SDS011;31345;51.522;10.702;2022-10-31T13:49:51;28.10;;;17.05;;
45620;SDS011;31345;51.522;10.702;2022-10-31T13:52:30;27.33;;;16.83;;
45620;SDS011;31345;51.522;10.702;2022-10-31T13:54:59;29.58;;;17.42;;
45620;SDS011;31345;51.522;10.702;2022-10-31T13:58:05;27.65;;;16.40;;
45620;SDS011;31345;51.522;10.702;2022-10-31T14:00:57;27.77;;;17.98;;
45620;SDS011;31345;51.522;10.702;2022-10-31T14:03:26;29.17;;;18.00;;
45620;SDS011;31345;51.522;10.702;2022-10-31T14:05:56;30.77;;;18.85;;
45620;SDS011;31345;51.522;10.702;2022-10-31T14:08:24;32.97;;;18.50;;
45620;SDS011;31345;51.522;10.702;2022-10-31T14:10:54;30.50;;;18.95;;
45620;SDS011;31345;51.522;10.702;2022-10-31T14:13:24;35.58;;;19.80;;
45620;SDS011;31345;51.522;10.702;2022-10-31T14:15:58;37.53;;;21.20;;
45620;SDS011;31345;51.522;10.702;2022-10-31T14:18:31;33.85;;;19.75;;
45620;SDS011;31345;51.522;10.702;2022-10-31T14:21:02;30.70;;;19.73;;
45620;SDS011;31345;51.522;10.702;2022-10-31T14:23:41;36.10;;;20.45;;
45620;SDS011;31345;51.522;10.702;2022-10-31T14:26:17;31.75;;;18.65;;
45620;SDS011;31345;51.522;10.702;2022-10-31T14:29:02;34.42;;;20.45;;
45620;SDS011;31345;51.522;10.702;2022-10-31T14:31:51;33.15;;;19.70;;
45620;SDS011;31345;51.522;10.702;2022-10-31T14:34:22;34.53;;;20.83;;
45620;SDS011;31345;51.522;10.702;2022-10-31T14:40:00;36.08;;;21.10;;
45620;SDS011;31345;51.522;10.702;2022-10-31T14:42:52;38.33;;;22.35;;
45620;SDS011;31345;51.522;10.702;2022-10-31T14:45:33;33.15;;;22.27;;
45620;SDS011;31345;51.522;10.702;2022-10-31T14:48:12;35.75;;;21.95;;
45620;SDS011;31345;51.522;10.702;2022-10-31T14:50:52;40.38;;;22.90;;
45620;SDS011;31345;51.522;10.702;2022-10-31T14:53:23;37.33;;;22.85;;
45620;SDS011;31345;51.522;10.702;2022-10-31T14:55:54;39.50;;;24.85;;
45620;SDS011;31345;51.522;10.702;2022-10-31T14:58:24;38.88;;;24.50;;
45620;SDS011;31345;51.522;10.702;2022-10-31T15:00:57;42.15;;;24.48;;
45620;SDS011;31345;51.522;10.702;2022-10-31T15:03:28;37.10;;;23.23;;
45620;SDS011;31345;51.522;10.702;2022-10-31T15:06:00;37.97;;;23.10;;
45620;SDS011;31345;51.522;10.702;2022-10-31T15:08:37;40.80;;;24.02;;
45620;SDS011;31345;51.522;10.702;2022-10-31T15:11:09;39.25;;;22.38;;
45620;SDS011;31345;51.522;10.702;2022-10-31T15:13:45;40.65;;;23.17;;
45620;SDS011;31345;51.522;10.702;2022-10-31T15:16:15;45.95;;;25.33;;
45620;SDS011;31345;51.522;10.702;2022-10-31T15:18:53;47.35;;;24.90;;
45620;SDS011;31345;51.522;10.702;2022-10-31T15:21:24;45.65;;;26.10;;
45620;SDS011;31345;51.522;10.702;2022-10-31T15:23:56;43.65;;;25.88;;
45620;SDS011;31345;51.522;10.702;2022-10-31T15:26:27;44.95;;;27.10;;
45620;SDS011;31345;51.522;10.702;2022-10-31T15:28:59;49.13;;;27.60;;
45620;SDS011;31345;51.522;10.702;2022-10-31T15:31:28;42.95;;;26.67;;
45620;SDS011;31345;51.522;10.702;2022-10-31T15:33:58;44.80;;;27.73;;
45620;SDS011;31345;51.522;10.702;2022-10-31T15:36:30;46.00;;;26.52;;
45620;SDS011;31345;51.522;10.702;2022-10-31T15:39:00;42.97;;;26.63;;
45620;SDS011;31345;51.522;10.702;2022-10-31T15:41:29;47.80;;;27.02;;